createdAt,value
2022-08-08T00:01:12.403Z,63.40
2022-08-08T00:03:49.063Z,63.50
2022-08-08T00:06:34.725Z,63.50
2022-08-08T00:09:09.277Z,63.60
2022-08-08T00:11:46.804Z,63.60
2022-08-08T00:14:59.291Z,63.70
2022-08-08T00:18:02.438Z,64.40
2022-08-08T00:20:34.044Z,63.60
2022-08-08T00:23:08.439Z,63.60
2022-08-08T00:25:46.481Z,63.60
2022-08-08T00:28:35.400Z,63.70
2022-08-08T00:32:29.127Z,63.60
2022-08-08T00:34:20.289Z,63.70
2022-08-08T00:37:03.546Z,63.80
2022-08-08T00:41:10.766Z,63.80
2022-08-08T00:42:53.318Z,64.00
2022-08-08T00:45:58.436Z,64.00
2022-08-08T00:49:01.306Z,64.10
2022-08-08T00:51:59.162Z,64.20
2022-08-08T00:54:57.442Z,64.30
2022-08-08T00:58:04.904Z,64.40
2022-08-08T01:00:50.585Z,64.20
2022-08-08T01:04:02.673Z,64.30
2022-08-08T01:07:11.269Z,64.40
2022-08-08T01:10:21.546Z,64.40
2022-08-08T01:13:23.200Z,64.50
2022-08-08T01:16:53.270Z,64.70
2022-08-08T01:20:03.254Z,64.80
2022-08-08T01:24:02.363Z,64.80
2022-08-08T01:26:32.512Z,64.90
2022-08-08T01:29:35.496Z,65.00
2022-08-08T01:32:44.598Z,65.10
2022-08-08T01:35:38.456Z,65.00
2022-08-08T01:38:47.521Z,65.20
2022-08-08T01:41:26.064Z,65.30
2022-08-08T01:44:04.297Z,65.30
2022-08-08T01:46:47.592Z,65.40
2022-08-08T01:49:37.490Z,65.50
2022-08-08T01:54:35.088Z,65.50
2022-08-08T01:55:46.216Z,65.70
2022-08-08T01:58:16.889Z,65.80
2022-08-08T02:00:57.651Z,65.80
2022-08-08T02:03:54.783Z,65.70
2022-08-08T02:10:37.047Z,66.00
2022-08-08T02:13:53.761Z,66.00
2022-08-08T02:16:21.348Z,66.20
2022-08-08T02:18:58.835Z,66.10
2022-08-08T02:21:49.037Z,66.20
2022-08-08T02:24:24.398Z,66.30
2022-08-08T02:27:01.358Z,66.30
2022-08-08T02:29:52.975Z,66.40
2022-08-08T02:32:41.061Z,66.60
2022-08-08T02:36:05.089Z,66.50
2022-08-08T02:38:54.308Z,66.60
2022-08-08T02:42:05.379Z,66.60
2022-08-08T02:45:18.122Z,66.70
2022-08-08T02:48:27.580Z,66.80
2022-08-08T02:51:46.596Z,66.80
2022-08-08T02:54:59.194Z,66.90
2022-08-08T02:58:15.148Z,67.10
2022-08-08T03:01:23.739Z,67.00
2022-08-08T03:05:03.241Z,67.10
2022-08-08T03:08:03.840Z,67.20
2022-08-08T03:11:25.701Z,67.20
2022-08-08T03:15:58.955Z,67.40
2022-08-08T03:17:34.020Z,67.30
2022-08-08T03:20:07.768Z,67.40
2022-08-08T03:22:46.083Z,67.50
2022-08-08T03:25:18.626Z,67.50
2022-08-08T03:27:56.513Z,67.70
2022-08-08T03:30:25.545Z,67.70
2022-08-08T03:33:56.756Z,67.70
2022-08-08T03:36:00.062Z,67.70
2022-08-08T03:38:56.323Z,67.90
2022-08-08T03:42:13.036Z,67.80
2022-08-08T03:44:06.622Z,67.90
2022-08-08T03:46:47.091Z,67.80
2022-08-08T03:49:56.451Z,68.00
2022-08-08T03:52:08.296Z,68.10
2022-08-08T03:55:01.457Z,68.30
2022-08-08T03:58:35.546Z,68.20
2022-08-08T04:00:22.074Z,68.20
2022-08-08T04:03:00.544Z,68.30
2022-08-08T04:05:30.265Z,68.40
2022-08-08T04:08:00.721Z,68.50
2022-08-08T04:10:32.814Z,68.60
2022-08-08T04:13:00.905Z,68.60
2022-08-08T04:15:38.683Z,68.70
2022-08-08T04:18:09.415Z,68.60
2022-08-08T04:20:44.442Z,68.70
2022-08-08T04:23:13.345Z,68.90
2022-08-08T04:25:44.649Z,68.90
2022-08-08T04:28:36.931Z,69.00
2022-08-08T04:31:06.042Z,69.10
2022-08-08T04:33:41.714Z,69.10
2022-08-08T04:36:09.929Z,69.10
2022-08-08T04:38:38.364Z,69.10
2022-08-08T04:41:17.916Z,69.10
2022-08-08T04:43:54.165Z,69.00
2022-08-08T04:46:25.167Z,69.10
2022-08-08T04:48:52.966Z,69.30
2022-08-08T04:51:28.267Z,69.50
2022-08-08T04:54:39.623Z,70.20
2022-08-08T04:56:57.661Z,69.50
2022-08-08T04:59:29.985Z,69.70
2022-08-08T05:02:00.703Z,69.60
2022-08-08T05:04:28.746Z,69.60
2022-08-08T05:06:56.529Z,69.60
2022-08-08T05:09:24.540Z,69.60
2022-08-08T05:11:56.710Z,69.70
2022-08-08T05:14:26.580Z,69.70
2022-08-08T05:17:01.030Z,69.80
2022-08-08T05:20:10.416Z,69.80
2022-08-08T05:22:17.876Z,69.80
2022-08-08T05:24:48.398Z,69.80
2022-08-08T05:27:16.688Z,69.90
2022-08-08T05:29:45.926Z,70.10
2022-08-08T05:32:19.977Z,69.80
2022-08-08T05:34:59.222Z,69.70
2022-08-08T05:37:49.262Z,69.90
2022-08-08T05:40:27.951Z,69.90
2022-08-08T05:43:03.172Z,69.80
2022-08-08T05:46:03.881Z,69.70
2022-08-08T05:48:36.266Z,69.70
2022-08-08T05:51:13.393Z,69.60
2022-08-08T05:54:24.619Z,69.50
2022-08-08T05:56:41.944Z,69.60
2022-08-08T05:59:59.053Z,69.60
2022-08-08T06:02:34.638Z,69.60
2022-08-08T06:05:24.513Z,69.60
2022-08-08T06:07:53.265Z,69.50
2022-08-08T06:10:33.427Z,69.50
2022-08-08T06:13:02.628Z,69.30
2022-08-08T06:15:51.394Z,69.30
2022-08-08T06:18:25.440Z,69.30
2022-08-08T06:20:57.081Z,69.20
2022-08-08T06:23:39.712Z,69.10
2022-08-08T06:26:44.103Z,69.10
2022-08-08T06:29:26.404Z,69.10
2022-08-08T06:32:10.082Z,68.90
2022-08-08T06:34:56.450Z,69.00
2022-08-08T06:37:39.252Z,69.00
2022-08-08T06:40:13.389Z,68.90
2022-08-08T06:42:51.790Z,68.90
2022-08-08T06:45:22.856Z,68.90
2022-08-08T06:47:52.464Z,68.90
2022-08-08T06:50:33.381Z,69.00
2022-08-08T06:53:10.137Z,69.00
2022-08-08T06:55:47.073Z,68.80
2022-08-08T06:58:21.208Z,68.70
2022-08-08T07:00:51.941Z,68.60
2022-08-08T07:03:52.701Z,68.60
2022-08-08T07:06:26.840Z,68.60
2022-08-08T07:08:59.245Z,68.70
2022-08-08T07:11:46.076Z,68.50
2022-08-08T07:14:20.097Z,68.40
2022-08-08T07:16:54.282Z,68.40
2022-08-08T07:19:31.253Z,68.20
2022-08-08T07:22:11.612Z,68.30
2022-08-08T07:24:46.554Z,68.00
2022-08-08T07:27:17.220Z,68.10
2022-08-08T07:29:59.846Z,68.00
2022-08-08T07:32:33.115Z,68.00
2022-08-08T07:35:02.893Z,68.00
2022-08-08T07:37:49.442Z,68.00
2022-08-08T07:40:29.056Z,67.80
2022-08-08T07:43:02.067Z,67.70
2022-08-08T07:45:34.775Z,67.60
2022-08-08T07:48:19.882Z,67.60
2022-08-08T07:50:54.834Z,67.20
2022-08-08T07:54:01.906Z,67.20
2022-08-08T07:56:36.901Z,67.00
2022-08-08T07:59:10.959Z,66.90
2022-08-08T08:02:32.786Z,66.80
2022-08-08T08:04:39.994Z,66.70
2022-08-08T08:07:10.818Z,66.50
2022-08-08T08:09:42.253Z,66.30
2022-08-08T08:12:31.753Z,66.20
2022-08-08T08:15:05.244Z,66.00
2022-08-08T08:17:47.458Z,65.80
2022-08-08T08:20:18.892Z,65.50
2022-08-08T08:22:47.283Z,65.40
2022-08-08T08:25:19.112Z,65.30
2022-08-08T08:27:47.311Z,65.40
2022-08-08T08:30:15.844Z,65.40
2022-08-08T08:32:51.534Z,65.00
2022-08-08T08:35:29.360Z,64.90
2022-08-08T08:38:17.041Z,64.70
2022-08-08T08:40:51.182Z,64.50
2022-08-08T08:43:20.286Z,64.50
2022-08-08T08:45:57.200Z,64.40
2022-08-08T08:48:26.132Z,64.30
2022-08-08T08:50:55.482Z,64.00
2022-08-08T08:53:27.213Z,63.90
2022-08-08T08:56:23.713Z,63.50
2022-08-08T08:58:53.380Z,63.40
2022-08-08T09:01:27.641Z,63.30
2022-08-08T09:04:00.501Z,62.80
2022-08-08T09:06:33.622Z,63.00
2022-08-08T09:09:26.054Z,62.80
2022-08-08T09:12:07.693Z,62.50
2022-08-08T09:14:42.057Z,61.70
2022-08-08T09:17:17.491Z,62.50
2022-08-08T09:22:02.958Z,62.40
2022-08-08T09:22:39.540Z,62.40
2022-08-08T09:25:09.772Z,62.20
2022-08-08T09:27:56.255Z,62.30
2022-08-08T09:30:27.728Z,61.90
2022-08-08T09:33:54.572Z,61.30
2022-08-08T09:35:49.921Z,61.70
2022-08-08T09:38:31.885Z,61.60
2022-08-08T09:41:07.265Z,61.00
2022-08-08T09:48:03.021Z,61.40
2022-08-08T09:50:13.538Z,61.20
2022-08-08T09:52:58.288Z,61.10
2022-08-08T09:56:01.851Z,61.10
2022-08-08T09:58:28.063Z,61.00
2022-08-08T10:01:15.076Z,61.00
2022-08-08T10:04:02.308Z,60.90
2022-08-08T10:06:35.666Z,60.70
2022-08-08T10:09:05.894Z,60.30
2022-08-08T10:12:27.832Z,60.40
2022-08-08T10:14:38.366Z,60.10
2022-08-08T10:17:57.529Z,59.90
2022-08-08T10:20:00.481Z,60.10
2022-08-08T10:22:30.487Z,60.10
2022-08-08T10:25:04.749Z,59.80
2022-08-08T10:27:42.943Z,59.60
2022-08-08T10:30:15.906Z,59.70
2022-08-08T10:32:52.875Z,59.50
2022-08-08T10:36:20.365Z,59.50
2022-08-08T10:38:16.562Z,59.40
2022-08-08T10:40:51.148Z,59.20
2022-08-08T10:43:20.016Z,58.80
2022-08-08T10:45:56.031Z,59.00
2022-08-08T10:48:56.166Z,58.80
2022-08-08T10:51:24.135Z,58.80
2022-08-08T10:53:58.178Z,58.90
2022-08-08T10:56:32.440Z,58.30
2022-08-08T10:59:07.656Z,58.70
2022-08-08T11:01:38.607Z,58.20
2022-08-08T11:04:10.551Z,58.50
2022-08-08T11:06:41.835Z,58.50
2022-08-08T11:09:21.487Z,58.40
2022-08-08T11:12:04.539Z,58.40
2022-08-08T11:14:50.269Z,58.30
2022-08-08T11:17:57.822Z,58.00
2022-08-08T11:20:14.624Z,58.00
2022-08-08T11:22:51.804Z,58.00
2022-08-08T11:25:52.005Z,57.90
2022-08-08T11:28:18.583Z,57.80
2022-08-08T11:30:49.906Z,57.70
2022-08-08T11:33:21.021Z,57.60
2022-08-08T11:35:50.997Z,57.50
2022-08-08T11:38:42.410Z,57.50
2022-08-08T11:41:06.885Z,57.30
2022-08-08T11:43:39.479Z,57.20
2022-08-08T11:46:17.456Z,57.20
2022-08-08T11:48:47.796Z,57.10
2022-08-08T11:51:37.902Z,57.20
2022-08-08T11:54:13.743Z,57.30
2022-08-08T11:56:56.152Z,57.00
2022-08-08T11:59:58.492Z,56.70
2022-08-08T12:02:32.173Z,56.70
2022-08-08T12:05:06.730Z,55.90
2022-08-08T12:07:49.800Z,56.90
2022-08-08T12:10:20.580Z,56.60
2022-08-08T12:12:49.276Z,56.40
2022-08-08T12:15:30.531Z,56.50
2022-08-08T12:18:18.199Z,56.50
2022-08-08T12:20:49.914Z,56.50
2022-08-08T12:23:43.567Z,56.40
2022-08-08T12:26:28.355Z,56.30
2022-08-08T12:29:21.323Z,56.00
2022-08-08T12:32:00.586Z,56.30
2022-08-08T12:34:38.699Z,55.80
2022-08-08T12:37:08.542Z,56.20
2022-08-08T12:40:01.796Z,56.00
2022-08-08T12:42:32.760Z,56.20
2022-08-08T12:45:53.636Z,55.90
2022-08-08T12:50:58.516Z,55.70
2022-08-08T12:53:35.243Z,55.40
2022-08-08T12:56:18.978Z,55.60
2022-08-08T12:58:49.817Z,55.60
2022-08-08T13:01:24.691Z,54.90
2022-08-08T13:04:18.422Z,55.10
2022-08-08T13:07:00.815Z,54.90
2022-08-08T13:09:57.474Z,55.30
2022-08-08T13:12:29.720Z,55.20
2022-08-08T13:14:59.050Z,55.40
2022-08-08T13:17:54.122Z,55.30
2022-08-08T13:20:19.798Z,55.20
2022-08-08T13:22:47.799Z,55.50
2022-08-08T13:25:16.973Z,55.40
2022-08-08T13:27:52.101Z,55.50
2022-08-08T13:30:26.452Z,54.80
2022-08-08T13:32:56.443Z,55.30
2022-08-08T13:35:29.470Z,55.60
2022-08-08T13:38:08.563Z,55.60
2022-08-08T13:40:41.052Z,55.60
2022-08-08T13:43:11.358Z,55.60
2022-08-08T13:45:39.207Z,55.50
2022-08-08T13:48:14.438Z,55.60
2022-08-08T13:50:50.780Z,55.50
2022-08-08T13:53:36.432Z,55.70
2022-08-08T13:56:11.290Z,55.20
2022-08-08T13:58:57.818Z,55.20
2022-08-08T14:01:33.004Z,53.90
2022-08-08T14:04:22.376Z,54.70
2022-08-08T14:06:58.672Z,54.80
2022-08-08T14:10:04.452Z,54.20
2022-08-08T14:12:28.019Z,54.60
2022-08-08T14:14:57.447Z,54.70
2022-08-08T14:17:57.122Z,54.60
2022-08-08T14:20:57.477Z,54.30
2022-08-08T14:23:10.306Z,54.20
2022-08-08T14:25:54.015Z,54.50
2022-08-08T14:28:29.259Z,54.60
2022-08-08T14:31:09.326Z,54.20
2022-08-08T14:33:37.583Z,54.50
2022-08-08T14:36:09.525Z,54.20
2022-08-08T14:38:52.643Z,54.20
2022-08-08T14:41:45.276Z,53.90
2022-08-08T14:44:21.185Z,54.20
2022-08-08T14:47:00.270Z,54.10
2022-08-08T14:49:51.642Z,53.80
2022-08-08T14:52:23.119Z,54.30
2022-08-08T14:54:51.344Z,54.60
2022-08-08T14:57:24.217Z,54.00
2022-08-08T15:00:09.889Z,54.00
2022-08-08T15:03:01.418Z,53.30
2022-08-08T15:05:42.552Z,53.60
2022-08-08T15:08:21.957Z,53.60
2022-08-08T15:10:50.744Z,52.70
2022-08-08T15:13:18.648Z,53.10
2022-08-08T15:16:02.810Z,53.50
2022-08-08T15:18:32.725Z,53.60
2022-08-08T15:21:00.458Z,53.70
2022-08-08T15:23:33.344Z,53.90
2022-08-08T15:26:02.595Z,53.90
2022-08-08T15:28:33.625Z,53.90
2022-08-08T15:31:02.468Z,53.10
2022-08-08T15:33:38.272Z,52.90
2022-08-08T15:36:19.502Z,52.80
2022-08-08T15:38:56.321Z,52.90
2022-08-08T15:41:24.708Z,53.30
2022-08-08T15:44:01.158Z,52.80
2022-08-08T15:46:34.782Z,51.70
2022-08-08T15:49:05.123Z,52.90
2022-08-08T15:51:34.226Z,53.30
2022-08-08T15:54:04.051Z,53.50
2022-08-08T15:56:31.814Z,53.60
2022-08-08T15:59:01.445Z,53.40
2022-08-08T16:01:40.600Z,53.20
2022-08-08T16:04:19.162Z,53.20
2022-08-08T16:06:49.483Z,53.40
2022-08-08T16:13:10.581Z,53.40
2022-08-08T16:13:10.726Z,53.20
2022-08-08T16:14:54.396Z,53.10
2022-08-08T16:17:38.873Z,53.50
2022-08-08T16:20:13.483Z,52.80
2022-08-08T16:22:42.068Z,53.20
2022-08-08T16:25:11.271Z,53.20
2022-08-08T16:27:42.966Z,53.80
2022-08-08T16:30:32.400Z,53.60
2022-08-08T16:33:04.465Z,53.50
2022-08-08T16:35:36.157Z,53.80
2022-08-08T16:38:03.972Z,54.20
2022-08-08T16:40:32.109Z,54.00
2022-08-08T16:42:59.869Z,53.90
2022-08-08T16:46:36.475Z,54.40
2022-08-08T16:48:15.741Z,54.40
2022-08-08T16:50:46.395Z,54.30
2022-08-08T16:55:23.175Z,54.60
2022-08-08T16:56:03.456Z,54.70
2022-08-08T16:58:35.671Z,54.90
2022-08-08T17:01:05.709Z,54.90
2022-08-08T17:03:58.592Z,55.10
2022-08-08T17:06:36.495Z,55.40
2022-08-08T17:09:06.202Z,55.50
2022-08-08T17:11:39.199Z,55.50
2022-08-08T17:14:19.178Z,55.40
2022-08-08T17:16:51.770Z,55.50
2022-08-08T17:19:25.709Z,55.60
2022-08-08T17:21:55.935Z,55.60
2022-08-08T17:24:27.692Z,55.70
2022-08-08T17:26:57.816Z,55.70
2022-08-08T17:29:26.349Z,55.70
2022-08-08T17:31:54.183Z,55.80
2022-08-08T17:34:49.419Z,55.80
2022-08-08T17:37:14.654Z,55.90
2022-08-08T17:40:03.748Z,56.10
2022-08-08T17:42:30.205Z,56.10
2022-08-08T17:44:58.483Z,56.20
2022-08-08T17:47:27.683Z,56.10
2022-08-08T17:50:01.476Z,56.20
2022-08-08T17:52:34.129Z,56.20
2022-08-08T17:55:05.212Z,56.30
2022-08-08T17:57:37.494Z,56.30
2022-08-08T18:00:19.121Z,56.30
2022-08-08T18:02:52.519Z,56.40
2022-08-08T18:05:48.786Z,56.40
2022-08-08T18:08:40.870Z,56.50
2022-08-08T18:11:11.466Z,56.50
2022-08-08T18:13:42.716Z,56.50
2022-08-08T18:16:12.640Z,56.60
2022-08-08T18:18:42.582Z,56.60
2022-08-08T18:21:34.668Z,56.60
2022-08-08T18:24:00.941Z,56.70
2022-08-08T18:26:29.852Z,56.90
2022-08-08T18:28:58.112Z,56.90
2022-08-08T18:31:27.790Z,57.10
2022-08-08T18:34:11.964Z,57.10
2022-08-08T18:36:44.547Z,57.20
2022-08-08T18:39:16.673Z,57.10
2022-08-08T18:42:02.793Z,57.20
2022-08-08T18:44:33.144Z,57.30
2022-08-08T18:47:02.966Z,57.90
2022-08-08T18:49:40.945Z,57.40
2022-08-08T18:52:22.831Z,57.40
2022-08-08T18:55:00.087Z,57.50
2022-08-08T18:57:41.041Z,57.50
2022-08-08T19:00:16.702Z,57.60
2022-08-08T19:02:56.880Z,57.70
2022-08-08T19:05:31.886Z,57.70
2022-08-08T19:08:09.650Z,57.80
2022-08-08T19:10:41.201Z,57.90
2022-08-08T19:13:10.778Z,57.90
2022-08-08T19:15:48.597Z,58.00
2022-08-08T19:18:33.362Z,58.10
2022-08-08T19:21:29.616Z,58.20
2022-08-08T19:23:58.824Z,58.20
2022-08-08T19:26:30.560Z,58.30
2022-08-08T19:28:59.339Z,58.40
2022-08-08T19:31:31.374Z,58.40
2022-08-08T19:34:30.047Z,58.50
2022-08-08T19:36:51.853Z,58.60
2022-08-08T19:39:19.801Z,58.60
2022-08-08T19:41:52.331Z,58.60
2022-08-08T19:48:04.623Z,58.70
2022-08-08T19:50:33.041Z,58.80
2022-08-08T19:53:01.076Z,58.90
2022-08-08T19:55:34.096Z,59.00
2022-08-08T19:58:04.024Z,59.00
2022-08-08T20:00:39.709Z,59.10
2022-08-08T20:04:01.360Z,59.10
2022-08-08T20:06:23.516Z,59.20
2022-08-08T20:08:52.812Z,59.20
2022-08-08T20:11:22.084Z,59.30
2022-08-08T20:14:32.884Z,59.30
2022-08-08T20:16:40.779Z,59.40
2022-08-08T20:19:09.176Z,59.50
2022-08-08T20:21:38.227Z,59.60
2022-08-08T20:24:07.951Z,59.60
2022-08-08T20:26:38.162Z,59.70
2022-08-08T20:29:08.544Z,59.70
2022-08-08T20:32:06.789Z,59.70
2022-08-08T20:34:30.138Z,59.80
2022-08-08T20:36:58.760Z,59.80
2022-08-08T20:39:33.613Z,59.90
2022-08-08T20:44:46.431Z,60.00
2022-08-08T20:47:22.784Z,60.10
2022-08-08T20:49:54.405Z,60.30
2022-08-08T20:52:27.459Z,60.30
2022-08-08T20:54:55.408Z,60.40
2022-08-08T20:57:23.194Z,60.50
2022-08-08T20:59:56.370Z,60.50
2022-08-08T21:02:25.871Z,60.60
2022-08-08T21:04:57.464Z,60.60
2022-08-08T21:07:47.451Z,60.60
2022-08-08T21:10:18.051Z,60.70
2022-08-08T21:12:52.973Z,60.80
2022-08-08T21:16:04.679Z,60.80
2022-08-08T21:18:12.183Z,61.00
2022-08-08T21:20:42.050Z,61.10
2022-08-08T21:23:10.753Z,61.00
2022-08-08T21:25:45.939Z,61.30
2022-08-08T21:28:33.357Z,62.10
2022-08-08T21:31:21.772Z,61.30
2022-08-08T21:33:50.175Z,61.30
2022-08-08T21:36:20.701Z,61.40
2022-08-08T21:38:50.237Z,61.50
2022-08-08T21:41:38.415Z,61.90
2022-08-08T21:44:06.384Z,61.70
2022-08-08T21:48:08.145Z,61.80
2022-08-08T21:49:23.428Z,61.80
2022-08-08T21:54:32.731Z,61.80
2022-08-08T21:55:01.788Z,61.90
2022-08-08T21:57:43.028Z,61.90
2022-08-08T22:00:26.016Z,62.00
2022-08-08T22:02:55.457Z,62.00
2022-08-08T22:05:23.221Z,62.10
2022-08-08T22:13:43.362Z,62.30
2022-08-08T22:20:10.701Z,62.50
2022-08-08T22:22:37.479Z,62.70
2022-08-08T22:25:12.432Z,62.60
2022-08-08T22:28:02.694Z,62.70
2022-08-08T22:30:40.326Z,62.60
2022-08-08T22:34:11.678Z,63.50
2022-08-08T22:36:05.544Z,62.80
2022-08-08T22:38:48.056Z,62.80
2022-08-08T22:41:21.594Z,63.30
2022-08-08T22:44:01.501Z,63.00
2022-08-08T22:46:32.809Z,63.00
2022-08-08T22:49:00.675Z,63.00
2022-08-08T22:51:30.213Z,63.20
2022-08-08T22:54:30.926Z,63.20
2022-08-08T22:56:50.709Z,63.10
2022-08-08T22:59:18.838Z,63.20
2022-08-08T23:02:03.289Z,63.20
2022-08-08T23:04:32.739Z,63.30
2022-08-08T23:07:03.701Z,63.40
2022-08-08T23:09:39.327Z,63.50
2022-08-08T23:12:40.240Z,63.40
2022-08-08T23:15:11.126Z,63.40
2022-08-08T23:17:58.271Z,63.80
2022-08-08T23:20:27.255Z,63.60
2022-08-08T23:22:57.208Z,63.60
2022-08-08T23:25:25.093Z,64.00
2022-08-08T23:27:54.434Z,63.90
2022-08-08T23:30:23.720Z,63.90
2022-08-08T23:32:52.612Z,64.00
2022-08-08T23:35:20.388Z,64.00
2022-08-08T23:38:02.222Z,64.10
2022-08-08T23:40:32.775Z,64.10
2022-08-08T23:43:04.437Z,64.10
2022-08-08T23:48:59.633Z,64.20
2022-08-08T23:49:00.413Z,64.20
2022-08-08T23:51:12.658Z,64.20
2022-08-08T23:54:06.319Z,64.30
2022-08-08T23:56:32.267Z,64.30
2022-08-08T23:59:00.550Z,64.40
